Terminal Aerodrome Forecast
Issued by NWS Cleveland, OH

Home | Current Version | Previous Version | Graphics & Text | Print | Product List | Glossary On
Versions: 1 2 3 4 5 6 7 8 9 10 11 12 13 14 15
777
FTUS41 KCLE 221136
TAFCAK
TAF
KCAK 221136Z 2212/2312 01010KT P6SM SCT030 BKN150
      TEMPO 2212/2214 BKN030
     FM221700 02010KT P6SM OVC040
     FM222200 02007KT P6SM SCT040=

USA.gov is the U.S. government's official web portal to all federal, state and local government web resources and services.